00CL weather

Williams Ag Airport
Biggs, California, United States

Public forecast

Using degrees Fahrenheit for public forecast. Weather courtesy of forecast.io.

Closest aviation weather report (METAR) to Williams Ag Airport

Closest report is Oroville Municipal Airport, 7.5 nm (13.9 km) ENE. Retrieved 2019/10/14 18:53 UTC (19 minutes ago):

KOVE 141853Z AUTO VRB04KT 10SM CLR 21/01 A2997 RMK AO2 SLP148 T02110011

Closest aviation forecast (TAF) to Williams Ag Airport

Forecast is more than 6 hours old.

Closest forecast is Beale Air Force Base, 23.1 nm (42.9 km) SE. Retrieved 2019/10/14 11:03 UTC (8 hours ago):

TAF TAF KBAB 141100Z 1411/1517 VRB06KT 9999 SKC QNH2986INS TX26/1423Z TN07/1413Z